sensor_id;sensor_type;location;lat;lon;timestamp;P1;durP1;ratioP1;P2;durP2;ratioP2
61553;SDS011;47425;51.976;5.326;2023-07-31T00:02:09;2.35;;;1.05;;
61553;SDS011;47425;51.976;5.326;2023-07-31T00:04:36;2.40;;;1.25;;
61553;SDS011;47425;51.976;5.326;2023-07-31T00:07:03;1.25;;;1.15;;
61553;SDS011;47425;51.976;5.326;2023-07-31T00:09:32;1.40;;;1.17;;
61553;SDS011;47425;51.976;5.326;2023-07-31T00:12:00;10.20;;;3.80;;
61553;SDS011;47425;51.976;5.326;2023-07-31T00:14:27;4.75;;;3.15;;
61553;SDS011;47425;51.976;5.326;2023-07-31T00:16:54;1.08;;;0.98;;
61553;SDS011;47425;51.976;5.326;2023-07-31T00:19:22;8.88;;;2.13;;
61553;SDS011;47425;51.976;5.326;2023-07-31T00:21:50;1.58;;;1.10;;
61553;SDS011;47425;51.976;5.326;2023-07-31T00:24:18;4.20;;;2.15;;
61553;SDS011;47425;51.976;5.326;2023-07-31T00:26:45;2.67;;;1.42;;
61553;SDS011;47425;51.976;5.326;2023-07-31T00:29:14;2.58;;;1.30;;
61553;SDS011;47425;51.976;5.326;2023-07-31T00:31:41;9.27;;;3.60;;
61553;SDS011;47425;51.976;5.326;2023-07-31T00:34:08;13.02;;;4.80;;
61553;SDS011;47425;51.976;5.326;2023-07-31T00:36:38;5.82;;;2.58;;
61553;SDS011;47425;51.976;5.326;2023-07-31T00:39:04;7.43;;;3.40;;
61553;SDS011;47425;51.976;5.326;2023-07-31T00:41:31;6.25;;;2.45;;
61553;SDS011;47425;51.976;5.326;2023-07-31T00:43:58;12.48;;;4.57;;
61553;SDS011;47425;51.976;5.326;2023-07-31T00:46:29;5.57;;;2.63;;
61553;SDS011;47425;51.976;5.326;2023-07-31T00:49:01;6.50;;;3.08;;
61553;SDS011;47425;51.976;5.326;2023-07-31T00:51:32;20.23;;;6.30;;
61553;SDS011;47425;51.976;5.326;2023-07-31T00:54:03;13.20;;;4.82;;
61553;SDS011;47425;51.976;5.326;2023-07-31T00:59:05;24.90;;;7.65;;
61553;SDS011;47425;51.976;5.326;2023-07-31T01:01:32;16.13;;;5.32;;
61553;SDS011;47425;51.976;5.326;2023-07-31T01:04:05;10.95;;;4.35;;
61553;SDS011;47425;51.976;5.326;2023-07-31T01:06:35;8.63;;;3.30;;
61553;SDS011;47425;51.976;5.326;2023-07-31T01:09:11;17.25;;;4.78;;
61553;SDS011;47425;51.976;5.326;2023-07-31T01:11:46;25.70;;;8.45;;
61553;SDS011;47425;51.976;5.326;2023-07-31T01:14:24;11.45;;;4.88;;
61553;SDS011;47425;51.976;5.326;2023-07-31T01:16:57;11.60;;;4.43;;
61553;SDS011;47425;51.976;5.326;2023-07-31T01:21:57;24.63;;;8.00;;
61553;SDS011;47425;51.976;5.326;2023-07-31T01:24:43;14.27;;;4.80;;
61553;SDS011;47425;51.976;5.326;2023-07-31T01:27:23;17.33;;;5.40;;
61553;SDS011;47425;51.976;5.326;2023-07-31T01:29:59;31.33;;;9.30;;
61553;SDS011;47425;51.976;5.326;2023-07-31T01:32:37;18.15;;;6.53;;
61553;SDS011;47425;51.976;5.326;2023-07-31T01:35:07;23.90;;;7.95;;
61553;SDS011;47425;51.976;5.326;2023-07-31T01:37:34;24.98;;;7.93;;
61553;SDS011;47425;51.976;5.326;2023-07-31T01:40:04;18.85;;;6.70;;
61553;SDS011;47425;51.976;5.326;2023-07-31T01:42:34;26.35;;;7.65;;
61553;SDS011;47425;51.976;5.326;2023-07-31T01:45:04;11.50;;;4.07;;
61553;SDS011;47425;51.976;5.326;2023-07-31T01:47:32;17.80;;;6.20;;
61553;SDS011;47425;51.976;5.326;2023-07-31T01:50:00;19.40;;;6.47;;
61553;SDS011;47425;51.976;5.326;2023-07-31T01:52:30;16.40;;;5.60;;
61553;SDS011;47425;51.976;5.326;2023-07-31T01:54:58;12.65;;;5.30;;
61553;SDS011;47425;51.976;5.326;2023-07-31T01:57:26;16.40;;;4.90;;
61553;SDS011;47425;51.976;5.326;2023-07-31T01:59:54;11.50;;;4.70;;
61553;SDS011;47425;51.976;5.326;2023-07-31T02:02:21;16.58;;;5.05;;
61553;SDS011;47425;51.976;5.326;2023-07-31T02:04:48;16.20;;;4.97;;
61553;SDS011;47425;51.976;5.326;2023-07-31T02:07:15;12.85;;;4.90;;
61553;SDS011;47425;51.976;5.326;2023-07-31T02:09:45;11.95;;;4.82;;
61553;SDS011;47425;51.976;5.326;2023-07-31T02:12:13;18.30;;;5.80;;
61553;SDS011;47425;51.976;5.326;2023-07-31T02:14:42;13.63;;;5.07;;
61553;SDS011;47425;51.976;5.326;2023-07-31T02:17:12;14.07;;;5.25;;
61553;SDS011;47425;51.976;5.326;2023-07-31T02:19:39;15.50;;;5.35;;
61553;SDS011;47425;51.976;5.326;2023-07-31T02:22:05;10.18;;;4.22;;
61553;SDS011;47425;51.976;5.326;2023-07-31T02:24:35;18.50;;;6.18;;
61553;SDS011;47425;51.976;5.326;2023-07-31T02:27:01;10.25;;;4.40;;
61553;SDS011;47425;51.976;5.326;2023-07-31T02:31:59;10.52;;;4.22;;
61553;SDS011;47425;51.976;5.326;2023-07-31T02:34:27;23.77;;;6.72;;
61553;SDS011;47425;51.976;5.326;2023-07-31T02:36:56;23.77;;;6.63;;
61553;SDS011;47425;51.976;5.326;2023-07-31T02:39:23;13.15;;;4.50;;
61553;SDS011;47425;51.976;5.326;2023-07-31T02:41:50;9.90;;;4.35;;
61553;SDS011;47425;51.976;5.326;2023-07-31T02:44:19;18.60;;;5.85;;
61553;SDS011;47425;51.976;5.326;2023-07-31T02:46:48;13.95;;;5.38;;
61553;SDS011;47425;51.976;5.326;2023-07-31T02:49:21;16.98;;;6.88;;
61553;SDS011;47425;51.976;5.326;2023-07-31T02:51:49;12.82;;;5.70;;
61553;SDS011;47425;51.976;5.326;2023-07-31T02:54:18;9.38;;;4.35;;
61553;SDS011;47425;51.976;5.326;2023-07-31T02:56:46;11.65;;;4.68;;
61553;SDS011;47425;51.976;5.326;2023-07-31T02:59:14;14.65;;;5.68;;
61553;SDS011;47425;51.976;5.326;2023-07-31T03:01:42;12.18;;;5.68;;
61553;SDS011;47425;51.976;5.326;2023-07-31T03:04:08;12.00;;;5.15;;
61553;SDS011;47425;51.976;5.326;2023-07-31T03:06:35;8.38;;;4.88;;
61553;SDS011;47425;51.976;5.326;2023-07-31T03:09:03;17.42;;;6.05;;
61553;SDS011;47425;51.976;5.326;2023-07-31T03:11:30;12.60;;;4.97;;
61553;SDS011;47425;51.976;5.326;2023-07-31T03:14:00;22.00;;;6.85;;
61553;SDS011;47425;51.976;5.326;2023-07-31T03:16:26;13.32;;;6.18;;
61553;SDS011;47425;51.976;5.326;2023-07-31T03:18:57;22.95;;;7.13;;
61553;SDS011;47425;51.976;5.326;2023-07-31T03:21:25;18.70;;;7.10;;
61553;SDS011;47425;51.976;5.326;2023-07-31T03:23:53;10.40;;;4.88;;
61553;SDS011;47425;51.976;5.326;2023-07-31T03:26:24;12.70;;;4.97;;
61553;SDS011;47425;51.976;5.326;2023-07-31T03:28:53;11.88;;;5.07;;
61553;SDS011;47425;51.976;5.326;2023-07-31T03:31:22;15.65;;;5.90;;
61553;SDS011;47425;51.976;5.326;2023-07-31T03:33:50;16.90;;;6.40;;
61553;SDS011;47425;51.976;5.326;2023-07-31T03:36:16;14.30;;;5.15;;
61553;SDS011;47425;51.976;5.326;2023-07-31T03:38:43;11.35;;;4.85;;
61553;SDS011;47425;51.976;5.326;2023-07-31T03:41:14;14.85;;;5.18;;
61553;SDS011;47425;51.976;5.326;2023-07-31T03:43:49;10.13;;;4.38;;
61553;SDS011;47425;51.976;5.326;2023-07-31T03:46:21;11.20;;;4.65;;
61553;SDS011;47425;51.976;5.326;2023-07-31T03:48:48;9.88;;;4.68;;
61553;SDS011;47425;51.976;5.326;2023-07-31T03:51:17;17.23;;;6.20;;
61553;SDS011;47425;51.976;5.326;2023-07-31T03:53:45;11.05;;;5.30;;
61553;SDS011;47425;51.976;5.326;2023-07-31T03:56:13;14.43;;;5.38;;
61553;SDS011;47425;51.976;5.326;2023-07-31T03:58:40;11.23;;;5.05;;
61553;SDS011;47425;51.976;5.326;2023-07-31T04:01:08;10.32;;;4.72;;
61553;SDS011;47425;51.976;5.326;2023-07-31T04:03:35;12.85;;;5.63;;
61553;SDS011;47425;51.976;5.326;2023-07-31T04:06:07;10.05;;;4.45;;
61553;SDS011;47425;51.976;5.326;2023-07-31T04:08:33;8.05;;;4.53;;
61553;SDS011;47425;51.976;5.326;2023-07-31T04:11:00;10.98;;;5.15;;
61553;SDS011;47425;51.976;5.326;2023-07-31T04:13:30;14.80;;;5.53;;
61553;SDS011;47425;51.976;5.326;2023-07-31T04:15:56;14.52;;;6.07;;
61553;SDS011;47425;51.976;5.326;2023-07-31T04:18:25;8.40;;;4.53;;
61553;SDS011;47425;51.976;5.326;2023-07-31T04:20:57;17.80;;;5.78;;
61553;SDS011;47425;51.976;5.326;2023-07-31T04:23:24;10.90;;;5.10;;
61553;SDS011;47425;51.976;5.326;2023-07-31T04:25:54;12.00;;;5.50;;
61553;SDS011;47425;51.976;5.326;2023-07-31T04:28:21;14.05;;;6.22;;
61553;SDS011;47425;51.976;5.326;2023-07-31T04:30:53;16.58;;;6.63;;
61553;SDS011;47425;51.976;5.326;2023-07-31T04:33:21;10.98;;;4.57;;
61553;SDS011;47425;51.976;5.326;2023-07-31T04:35:51;12.35;;;5.55;;
61553;SDS011;47425;51.976;5.326;2023-07-31T04:38:18;14.00;;;5.30;;
61553;SDS011;47425;51.976;5.326;2023-07-31T04:40:45;11.02;;;5.10;;
61553;SDS011;47425;51.976;5.326;2023-07-31T04:43:14;12.25;;;5.20;;
61553;SDS011;47425;51.976;5.326;2023-07-31T04:45:46;19.98;;;6.38;;
61553;SDS011;47425;51.976;5.326;2023-07-31T04:48:16;11.52;;;5.97;;
61553;SDS011;47425;51.976;5.326;2023-07-31T04:50:43;11.48;;;5.38;;
61553;SDS011;47425;51.976;5.326;2023-07-31T04:53:11;15.23;;;5.55;;
61553;SDS011;47425;51.976;5.326;2023-07-31T04:55:42;15.70;;;6.07;;
61553;SDS011;47425;51.976;5.326;2023-07-31T04:58:08;15.05;;;5.60;;
61553;SDS011;47425;51.976;5.326;2023-07-31T05:00:39;15.30;;;4.60;;
61553;SDS011;47425;51.976;5.326;2023-07-31T05:03:07;15.18;;;5.35;;
61553;SDS011;47425;51.976;5.326;2023-07-31T05:08:02;11.90;;;5.15;;
61553;SDS011;47425;51.976;5.326;2023-07-31T05:10:30;9.48;;;4.35;;
61553;SDS011;47425;51.976;5.326;2023-07-31T05:12:58;12.32;;;4.60;;
61553;SDS011;47425;51.976;5.326;2023-07-31T05:15:25;9.98;;;4.40;;
61553;SDS011;47425;51.976;5.326;2023-07-31T05:17:52;10.88;;;5.07;;
61553;SDS011;47425;51.976;5.326;2023-07-31T05:20:18;14.35;;;5.00;;
61553;SDS011;47425;51.976;5.326;2023-07-31T05:22:48;9.18;;;4.82;;
61553;SDS011;47425;51.976;5.326;2023-07-31T05:25:21;9.82;;;5.10;;
61553;SDS011;47425;51.976;5.326;2023-07-31T05:27:50;12.50;;;4.88;;
61553;SDS011;47425;51.976;5.326;2023-07-31T05:30:18;13.20;;;5.68;;
61553;SDS011;47425;51.976;5.326;2023-07-31T05:32:48;10.88;;;4.43;;
61553;SDS011;47425;51.976;5.326;2023-07-31T05:35:15;11.07;;;4.30;;
61553;SDS011;47425;51.976;5.326;2023-07-31T05:37:42;13.73;;;4.32;;
61553;SDS011;47425;51.976;5.326;2023-07-31T05:40:09;8.38;;;4.47;;
61553;SDS011;47425;51.976;5.326;2023-07-31T05:42:35;10.52;;;5.13;;
61553;SDS011;47425;51.976;5.326;2023-07-31T05:45:05;9.98;;;4.78;;
61553;SDS011;47425;51.976;5.326;2023-07-31T05:47:33;7.70;;;3.72;;
61553;SDS011;47425;51.976;5.326;2023-07-31T05:50:00;7.43;;;3.95;;
61553;SDS011;47425;51.976;5.326;2023-07-31T05:52:28;10.32;;;3.65;;
61553;SDS011;47425;51.976;5.326;2023-07-31T05:57:23;12.63;;;4.57;;
61553;SDS011;47425;51.976;5.326;2023-07-31T05:59:49;9.15;;;3.90;;
61553;SDS011;47425;51.976;5.326;2023-07-31T06:02:17;8.75;;;4.22;;
61553;SDS011;47425;51.976;5.326;2023-07-31T06:04:45;10.48;;;4.38;;
61553;SDS011;47425;51.976;5.326;2023-07-31T06:07:16;11.07;;;3.88;;
61553;SDS011;47425;51.976;5.326;2023-07-31T06:09:44;6.93;;;3.78;;
61553;SDS011;47425;51.976;5.326;2023-07-31T06:12:11;9.20;;;4.20;;
61553;SDS011;47425;51.976;5.326;2023-07-31T06:14:37;8.38;;;3.83;;
61553;SDS011;47425;51.976;5.326;2023-07-31T06:17:05;9.02;;;3.85;;
61553;SDS011;47425;51.976;5.326;2023-07-31T06:19:34;6.57;;;3.30;;
61553;SDS011;47425;51.976;5.326;2023-07-31T06:22:01;8.50;;;4.10;;
61553;SDS011;47425;51.976;5.326;2023-07-31T06:24:28;6.82;;;4.00;;
61553;SDS011;47425;51.976;5.326;2023-07-31T06:26:57;5.43;;;3.63;;
61553;SDS011;47425;51.976;5.326;2023-07-31T06:29:26;7.00;;;3.80;;
61553;SDS011;47425;51.976;5.326;2023-07-31T06:31:53;7.63;;;3.40;;
61553;SDS011;47425;51.976;5.326;2023-07-31T06:34:20;6.10;;;3.42;;
61553;SDS011;47425;51.976;5.326;2023-07-31T06:36:53;7.55;;;3.55;;
61553;SDS011;47425;51.976;5.326;2023-07-31T06:39:22;7.60;;;3.60;;
61553;SDS011;47425;51.976;5.326;2023-07-31T06:41:50;5.00;;;3.10;;
61553;SDS011;47425;51.976;5.326;2023-07-31T06:44:17;6.00;;;3.10;;
61553;SDS011;47425;51.976;5.326;2023-07-31T06:46:43;6.65;;;3.38;;
61553;SDS011;47425;51.976;5.326;2023-07-31T06:49:12;7.70;;;3.45;;
61553;SDS011;47425;51.976;5.326;2023-07-31T06:51:40;7.82;;;3.25;;
61553;SDS011;47425;51.976;5.326;2023-07-31T06:54:12;11.57;;;4.00;;
61553;SDS011;47425;51.976;5.326;2023-07-31T06:56:40;9.48;;;3.60;;
61553;SDS011;47425;51.976;5.326;2023-07-31T06:59:08;12.38;;;4.85;;
61553;SDS011;47425;51.976;5.326;2023-07-31T07:01:35;7.53;;;3.92;;
61553;SDS011;47425;51.976;5.326;2023-07-31T07:04:02;11.20;;;4.90;;
61553;SDS011;47425;51.976;5.326;2023-07-31T07:06:30;16.10;;;5.70;;
61553;SDS011;47425;51.976;5.326;2023-07-31T07:08:59;20.40;;;5.35;;
61553;SDS011;47425;51.976;5.326;2023-07-31T07:11:27;13.95;;;5.53;;
61553;SDS011;47425;51.976;5.326;2023-07-31T07:13:53;14.10;;;4.50;;
61553;SDS011;47425;51.976;5.326;2023-07-31T07:16:20;19.10;;;5.72;;
61553;SDS011;47425;51.976;5.326;2023-07-31T07:18:48;18.42;;;5.10;;
61553;SDS011;47425;51.976;5.326;2023-07-31T07:21:18;14.73;;;4.88;;
61553;SDS011;47425;51.976;5.326;2023-07-31T07:23:45;15.23;;;4.47;;
61553;SDS011;47425;51.976;5.326;2023-07-31T07:26:12;11.57;;;5.22;;
61553;SDS011;47425;51.976;5.326;2023-07-31T07:28:40;13.93;;;4.97;;
61553;SDS011;47425;51.976;5.326;2023-07-31T07:31:09;13.82;;;4.25;;
61553;SDS011;47425;51.976;5.326;2023-07-31T07:33:36;18.88;;;4.97;;
61553;SDS011;47425;51.976;5.326;2023-07-31T07:36:05;10.20;;;4.28;;
61553;SDS011;47425;51.976;5.326;2023-07-31T07:38:34;11.38;;;4.68;;
61553;SDS011;47425;51.976;5.326;2023-07-31T07:41:01;12.90;;;5.03;;
61553;SDS011;47425;51.976;5.326;2023-07-31T07:43:30;11.55;;;3.95;;
61553;SDS011;47425;51.976;5.326;2023-07-31T07:45:58;9.55;;;4.18;;
61553;SDS011;47425;51.976;5.326;2023-07-31T07:48:25;13.30;;;4.53;;
61553;SDS011;47425;51.976;5.326;2023-07-31T07:50:51;8.15;;;3.72;;
61553;SDS011;47425;51.976;5.326;2023-07-31T07:53:18;11.80;;;4.57;;
61553;SDS011;47425;51.976;5.326;2023-07-31T07:55:47;9.35;;;4.20;;
61553;SDS011;47425;51.976;5.326;2023-07-31T07:58:14;5.78;;;3.53;;
61553;SDS011;47425;51.976;5.326;2023-07-31T08:00:40;10.55;;;4.30;;
61553;SDS011;47425;51.976;5.326;2023-07-31T08:03:08;11.95;;;4.50;;
61553;SDS011;47425;51.976;5.326;2023-07-31T08:05:35;7.47;;;3.78;;
61553;SDS011;47425;51.976;5.326;2023-07-31T08:08:02;8.93;;;3.88;;
61553;SDS011;47425;51.976;5.326;2023-07-31T08:10:29;8.85;;;3.63;;
61553;SDS011;47425;51.976;5.326;2023-07-31T08:12:55;3.10;;;2.47;;
61553;SDS011;47425;51.976;5.326;2023-07-31T08:15:22;5.85;;;3.13;;
61553;SDS011;47425;51.976;5.326;2023-07-31T08:17:49;4.95;;;2.70;;
61553;SDS011;47425;51.976;5.326;2023-07-31T08:20:17;6.07;;;3.03;;
61553;SDS011;47425;51.976;5.326;2023-07-31T08:22:45;4.65;;;2.65;;
61553;SDS011;47425;51.976;5.326;2023-07-31T08:25:12;6.05;;;3.05;;
61553;SDS011;47425;51.976;5.326;2023-07-31T08:27:42;5.53;;;3.17;;
61553;SDS011;47425;51.976;5.326;2023-07-31T08:30:09;5.13;;;2.35;;
61553;SDS011;47425;51.976;5.326;2023-07-31T08:32:39;4.70;;;2.67;;
61553;SDS011;47425;51.976;5.326;2023-07-31T08:35:07;5.90;;;2.80;;
61553;SDS011;47425;51.976;5.326;2023-07-31T08:37:40;6.22;;;2.70;;
61553;SDS011;47425;51.976;5.326;2023-07-31T08:40:10;4.75;;;2.85;;
61553;SDS011;47425;51.976;5.326;2023-07-31T08:42:44;4.20;;;2.75;;
61553;SDS011;47425;51.976;5.326;2023-07-31T08:45:13;5.57;;;2.20;;
61553;SDS011;47425;51.976;5.326;2023-07-31T08:47:44;3.78;;;2.40;;
61553;SDS011;47425;51.976;5.326;2023-07-31T08:50:12;6.03;;;2.45;;
61553;SDS011;47425;51.976;5.326;2023-07-31T08:52:46;6.22;;;2.60;;
61553;SDS011;47425;51.976;5.326;2023-07-31T08:55:14;4.78;;;2.38;;
61553;SDS011;47425;51.976;5.326;2023-07-31T08:57:41;3.75;;;2.00;;
61553;SDS011;47425;51.976;5.326;2023-07-31T09:00:09;3.13;;;2.28;;
61553;SDS011;47425;51.976;5.326;2023-07-31T09:02:41;4.70;;;2.42;;
61553;SDS011;47425;51.976;5.326;2023-07-31T09:05:12;4.47;;;2.58;;
61553;SDS011;47425;51.976;5.326;2023-07-31T09:07:40;4.50;;;2.20;;
61553;SDS011;47425;51.976;5.326;2023-07-31T09:10:12;8.73;;;2.50;;
61553;SDS011;47425;51.976;5.326;2023-07-31T09:12:41;2.67;;;2.10;;
61553;SDS011;47425;51.976;5.326;2023-07-31T09:15:10;4.57;;;2.55;;
61553;SDS011;47425;51.976;5.326;2023-07-31T09:17:42;4.05;;;2.65;;
61553;SDS011;47425;51.976;5.326;2023-07-31T09:20:13;4.13;;;2.22;;
61553;SDS011;47425;51.976;5.326;2023-07-31T09:22:41;3.72;;;2.80;;
61553;SDS011;47425;51.976;5.326;2023-07-31T09:25:16;4.25;;;2.47;;
61553;SDS011;47425;51.976;5.326;2023-07-31T09:27:48;2.97;;;1.70;;
61553;SDS011;47425;51.976;5.326;2023-07-31T09:30:21;5.07;;;3.13;;
61553;SDS011;47425;51.976;5.326;2023-07-31T09:32:49;2.83;;;2.10;;
61553;SDS011;47425;51.976;5.326;2023-07-31T09:35:20;4.15;;;2.47;;
61553;SDS011;47425;51.976;5.326;2023-07-31T09:37:51;8.02;;;3.13;;
61553;SDS011;47425;51.976;5.326;2023-07-31T09:40:26;3.65;;;1.85;;
61553;SDS011;47425;51.976;5.326;2023-07-31T09:42:59;7.07;;;2.60;;
61553;SDS011;47425;51.976;5.326;2023-07-31T09:45:35;4.57;;;2.97;;
61553;SDS011;47425;51.976;5.326;2023-07-31T09:48:16;2.95;;;2.08;;
61553;SDS011;47425;51.976;5.326;2023-07-31T09:50:48;6.10;;;3.72;;
61553;SDS011;47425;51.976;5.326;2023-07-31T09:53:15;3.35;;;2.38;;
61553;SDS011;47425;51.976;5.326;2023-07-31T09:55:44;2.70;;;1.55;;
61553;SDS011;47425;51.976;5.326;2023-07-31T09:58:12;2.60;;;2.00;;
61553;SDS011;47425;51.976;5.326;2023-07-31T10:00:42;5.05;;;3.25;;
61553;SDS011;47425;51.976;5.326;2023-07-31T10:03:11;5.13;;;2.45;;
61553;SDS011;47425;51.976;5.326;2023-07-31T10:05:39;5.43;;;3.92;;
61553;SDS011;47425;51.976;5.326;2023-07-31T10:08:09;2.58;;;1.92;;
61553;SDS011;47425;51.976;5.326;2023-07-31T10:10:41;4.90;;;2.78;;
61553;SDS011;47425;51.976;5.326;2023-07-31T10:13:14;8.50;;;3.88;;
61553;SDS011;47425;51.976;5.326;2023-07-31T10:15:44;4.70;;;3.00;;
61553;SDS011;47425;51.976;5.326;2023-07-31T10:18:14;5.65;;;3.58;;
61553;SDS011;47425;51.976;5.326;2023-07-31T10:23:11;2.20;;;1.70;;
61553;SDS011;47425;51.976;5.326;2023-07-31T10:25:44;5.05;;;2.72;;
61553;SDS011;47425;51.976;5.326;2023-07-31T10:28:12;5.85;;;2.83;;
61553;SDS011;47425;51.976;5.326;2023-07-31T10:30:41;4.13;;;2.72;;
61553;SDS011;47425;51.976;5.326;2023-07-31T10:33:09;5.05;;;2.10;;
61553;SDS011;47425;51.976;5.326;2023-07-31T10:35:40;4.40;;;2.30;;
61553;SDS011;47425;51.976;5.326;2023-07-31T10:38:10;4.55;;;2.45;;
61553;SDS011;47425;51.976;5.326;2023-07-31T10:40:38;2.20;;;1.95;;
61553;SDS011;47425;51.976;5.326;2023-07-31T10:43:06;2.83;;;1.90;;
61553;SDS011;47425;51.976;5.326;2023-07-31T10:45:37;3.65;;;1.92;;
61553;SDS011;47425;51.976;5.326;2023-07-31T10:48:06;4.70;;;2.40;;
61553;SDS011;47425;51.976;5.326;2023-07-31T10:50:45;5.25;;;2.53;;
61553;SDS011;47425;51.976;5.326;2023-07-31T10:53:22;3.53;;;2.75;;
61553;SDS011;47425;51.976;5.326;2023-07-31T10:55:51;3.97;;;2.40;;
61553;SDS011;47425;51.976;5.326;2023-07-31T10:58:19;3.20;;;2.35;;
61553;SDS011;47425;51.976;5.326;2023-07-31T11:00:48;2.53;;;2.33;;
61553;SDS011;47425;51.976;5.326;2023-07-31T11:03:16;2.95;;;2.30;;
61553;SDS011;47425;51.976;5.326;2023-07-31T11:05:48;5.95;;;3.17;;
61553;SDS011;47425;51.976;5.326;2023-07-31T11:08:19;4.03;;;1.80;;
61553;SDS011;47425;51.976;5.326;2023-07-31T11:10:49;4.72;;;1.63;;
61553;SDS011;47425;51.976;5.326;2023-07-31T11:13:18;3.45;;;1.80;;
61553;SDS011;47425;51.976;5.326;2023-07-31T11:15:45;3.20;;;2.47;;
61553;SDS011;47425;51.976;5.326;2023-07-31T11:18:12;6.40;;;3.65;;
61553;SDS011;47425;51.976;5.326;2023-07-31T11:20:39;4.13;;;2.78;;
61553;SDS011;47425;51.976;5.326;2023-07-31T11:25:36;2.85;;;2.00;;
61553;SDS011;47425;51.976;5.326;2023-07-31T11:28:09;3.70;;;2.67;;
61553;SDS011;47425;51.976;5.326;2023-07-31T11:30:38;4.00;;;3.28;;
61553;SDS011;47425;51.976;5.326;2023-07-31T11:33:06;4.03;;;3.55;;
61553;SDS011;47425;51.976;5.326;2023-07-31T11:35:34;4.60;;;2.60;;
61553;SDS011;47425;51.976;5.326;2023-07-31T11:38:02;3.15;;;1.60;;
61553;SDS011;47425;51.976;5.326;2023-07-31T11:40:29;2.58;;;2.08;;
61553;SDS011;47425;51.976;5.326;2023-07-31T11:42:56;4.78;;;1.92;;
61553;SDS011;47425;51.976;5.326;2023-07-31T11:45:26;4.80;;;2.17;;
61553;SDS011;47425;51.976;5.326;2023-07-31T11:47:56;2.05;;;1.85;;
61553;SDS011;47425;51.976;5.326;2023-07-31T11:50:33;3.88;;;1.70;;
61553;SDS011;47425;51.976;5.326;2023-07-31T11:53:03;3.90;;;1.60;;
61553;SDS011;47425;51.976;5.326;2023-07-31T11:55:37;2.97;;;1.40;;
61553;SDS011;47425;51.976;5.326;2023-07-31T11:58:04;2.13;;;1.60;;
61553;SDS011;47425;51.976;5.326;2023-07-31T12:00:34;1.55;;;1.40;;
61553;SDS011;47425;51.976;5.326;2023-07-31T12:03:03;1.77;;;1.33;;
61553;SDS011;47425;51.976;5.326;2023-07-31T12:05:30;2.97;;;1.73;;
61553;SDS011;47425;51.976;5.326;2023-07-31T12:07:57;2.00;;;1.40;;
61553;SDS011;47425;51.976;5.326;2023-07-31T12:10:28;2.50;;;1.50;;
61553;SDS011;47425;51.976;5.326;2023-07-31T12:12:57;1.85;;;1.15;;
61553;SDS011;47425;51.976;5.326;2023-07-31T12:15:33;4.43;;;2.35;;
61553;SDS011;47425;51.976;5.326;2023-07-31T12:18:09;3.13;;;1.73;;
61553;SDS011;47425;51.976;5.326;2023-07-31T12:20:40;1.70;;;1.60;;
61553;SDS011;47425;51.976;5.326;2023-07-31T12:23:14;2.22;;;1.92;;
61553;SDS011;47425;51.976;5.326;2023-07-31T12:25:54;2.70;;;1.75;;
61553;SDS011;47425;51.976;5.326;2023-07-31T12:28:28;1.73;;;1.63;;
61553;SDS011;47425;51.976;5.326;2023-07-31T12:30:56;2.78;;;1.75;;
61553;SDS011;47425;51.976;5.326;2023-07-31T12:33:31;2.05;;;1.85;;
61553;SDS011;47425;51.976;5.326;2023-07-31T12:36:07;2.35;;;1.50;;
61553;SDS011;47425;51.976;5.326;2023-07-31T12:38:36;1.73;;;1.55;;
61553;SDS011;47425;51.976;5.326;2023-07-31T12:41:07;1.60;;;1.40;;
61553;SDS011;47425;51.976;5.326;2023-07-31T12:43:34;2.78;;;2.20;;
61553;SDS011;47425;51.976;5.326;2023-07-31T12:46:02;4.88;;;2.50;;
61553;SDS011;47425;51.976;5.326;2023-07-31T12:48:31;3.80;;;2.67;;
61553;SDS011;47425;51.976;5.326;2023-07-31T12:50:58;2.80;;;2.47;;
61553;SDS011;47425;51.976;5.326;2023-07-31T12:53:25;3.15;;;2.80;;
61553;SDS011;47425;51.976;5.326;2023-07-31T12:55:52;3.50;;;1.33;;
61553;SDS011;47425;51.976;5.326;2023-07-31T12:58:18;3.58;;;3.28;;
61553;SDS011;47425;51.976;5.326;2023-07-31T13:00:45;3.10;;;2.22;;
61553;SDS011;47425;51.976;5.326;2023-07-31T13:03:12;3.53;;;2.30;;
61553;SDS011;47425;51.976;5.326;2023-07-31T13:05:40;3.38;;;3.05;;
61553;SDS011;47425;51.976;5.326;2023-07-31T13:08:08;1.25;;;1.15;;
61553;SDS011;47425;51.976;5.326;2023-07-31T13:10:35;1.35;;;1.13;;
61553;SDS011;47425;51.976;5.326;2023-07-31T13:13:02;2.10;;;1.33;;
61553;SDS011;47425;51.976;5.326;2023-07-31T13:15:28;1.42;;;1.33;;
61553;SDS011;47425;51.976;5.326;2023-07-31T13:17:55;1.70;;;1.50;;
61553;SDS011;47425;51.976;5.326;2023-07-31T13:20:26;4.32;;;4.00;;
61553;SDS011;47425;51.976;5.326;2023-07-31T13:22:56;3.00;;;2.42;;
61553;SDS011;47425;51.976;5.326;2023-07-31T13:25:24;5.18;;;4.55;;
61553;SDS011;47425;51.976;5.326;2023-07-31T13:27:51;2.10;;;1.67;;
61553;SDS011;47425;51.976;5.326;2023-07-31T13:30:20;1.90;;;1.13;;
61553;SDS011;47425;51.976;5.326;2023-07-31T13:32:46;2.72;;;1.65;;
61553;SDS011;47425;51.976;5.326;2023-07-31T13:35:14;4.72;;;3.08;;
61553;SDS011;47425;51.976;5.326;2023-07-31T13:37:45;2.78;;;2.53;;
61553;SDS011;47425;51.976;5.326;2023-07-31T13:40:13;2.92;;;2.45;;
61553;SDS011;47425;51.976;5.326;2023-07-31T13:42:42;2.22;;;1.27;;
61553;SDS011;47425;51.976;5.326;2023-07-31T13:45:09;2.58;;;2.22;;
61553;SDS011;47425;51.976;5.326;2023-07-31T13:47:37;2.65;;;2.45;;
61553;SDS011;47425;51.976;5.326;2023-07-31T13:50:06;1.63;;;1.50;;
61553;SDS011;47425;51.976;5.326;2023-07-31T13:52:35;3.42;;;3.13;;
61553;SDS011;47425;51.976;5.326;2023-07-31T13:55:02;4.53;;;4.00;;
61553;SDS011;47425;51.976;5.326;2023-07-31T13:57:32;1.98;;;1.30;;
61553;SDS011;47425;51.976;5.326;2023-07-31T14:00:01;3.17;;;1.67;;
61553;SDS011;47425;51.976;5.326;2023-07-31T14:02:31;1.60;;;1.50;;
61553;SDS011;47425;51.976;5.326;2023-07-31T14:07:25;6.07;;;3.90;;
61553;SDS011;47425;51.976;5.326;2023-07-31T14:09:51;3.90;;;2.45;;
61553;SDS011;47425;51.976;5.326;2023-07-31T14:12:21;2.28;;;2.00;;
61553;SDS011;47425;51.976;5.326;2023-07-31T14:14:50;6.28;;;4.53;;
61553;SDS011;47425;51.976;5.326;2023-07-31T14:17:18;8.55;;;5.90;;
61553;SDS011;47425;51.976;5.326;2023-07-31T14:19:44;2.90;;;1.98;;
61553;SDS011;47425;51.976;5.326;2023-07-31T14:22:15;6.10;;;4.88;;
61553;SDS011;47425;51.976;5.326;2023-07-31T14:24:42;6.75;;;5.03;;
61553;SDS011;47425;51.976;5.326;2023-07-31T14:27:08;3.35;;;3.05;;
61553;SDS011;47425;51.976;5.326;2023-07-31T14:29:35;2.13;;;1.83;;
61553;SDS011;47425;51.976;5.326;2023-07-31T14:32:06;1.65;;;1.50;;
61553;SDS011;47425;51.976;5.326;2023-07-31T14:34:33;3.33;;;2.78;;
61553;SDS011;47425;51.976;5.326;2023-07-31T14:37:01;2.17;;;1.90;;
61553;SDS011;47425;51.976;5.326;2023-07-31T14:39:28;4.22;;;2.00;;
61553;SDS011;47425;51.976;5.326;2023-07-31T14:41:54;4.45;;;3.63;;
61553;SDS011;47425;51.976;5.326;2023-07-31T14:44:21;2.75;;;2.47;;
61553;SDS011;47425;51.976;5.326;2023-07-31T14:46:48;3.90;;;3.03;;
61553;SDS011;47425;51.976;5.326;2023-07-31T14:51:44;7.50;;;4.75;;
61553;SDS011;47425;51.976;5.326;2023-07-31T14:54:13;4.45;;;2.50;;
61553;SDS011;47425;51.976;5.326;2023-07-31T14:56:40;2.10;;;1.90;;
61553;SDS011;47425;51.976;5.326;2023-07-31T14:59:07;6.30;;;3.05;;
61553;SDS011;47425;51.976;5.326;2023-07-31T15:01:36;7.47;;;4.38;;
61553;SDS011;47425;51.976;5.326;2023-07-31T15:04:03;5.20;;;3.17;;
61553;SDS011;47425;51.976;5.326;2023-07-31T15:06:32;4.70;;;2.88;;
61553;SDS011;47425;51.976;5.326;2023-07-31T15:08:58;4.85;;;2.70;;
61553;SDS011;47425;51.976;5.326;2023-07-31T15:11:26;2.63;;;2.42;;
61553;SDS011;47425;51.976;5.326;2023-07-31T15:13:53;4.82;;;2.70;;
61553;SDS011;47425;51.976;5.326;2023-07-31T15:16:19;4.03;;;1.90;;